Lake Wissota, Wisconsin
Current Conditions -  °F | °C
As of 12:56 AM on Monday 24 Nov 2014 (Local Time) from KEAU Reporting Station
Haze Haze  
Wind Chill: 29°   Ceiling: 700
Heat Index: 37°   Visibility: 4mi
Dew Point: 35°   Wind: 13mph
Humidity: 93%   Direction: 330°NNW
Pressure: 29.18"   Gusts: NA
Location:  44.9743°N, 91.4379°W
Report Text: KEAU 240656Z AUTO 33011KT 4SM BR OVC007 03/02 A2918 RMK AO2 CIG 005V010 SLP887 T00280017
Loading
Personal Weather Stations






























Interactive Weather Map New forecast layout! Learn more

10-Day Weather Forecast

Advertisements
Track Severe Weather on mobile